Letham, United Kingdom
Current Conditions -  °F | °C
As of 5:50 PM on Thursday 29 Jan 2015 (Local Time) from EGPN Reporting Station
Few Clouds Few Clouds  
Wind Chill: -2°   Ceiling: Unl
Heat Index:   Visibility: 6mi
Dew Point: -1°   Wind: 6mph
Humidity: 87%   Direction: 290°WNW
Pressure: 28.7"   Gusts: NA
Location:  56.62°N, 2.77°W
Report Text: EGPN 291750Z 29005KT 260V320 9999 FEW035 01/M01 Q0972
Loading
Personal Weather Stations






























Interactive Weather Map New forecast layout! Learn more

10-Day Weather Forecast

Advertisements
Track Severe Weather on mobile